sensor_id;sensor_type;location;lat;lon;timestamp;temperature;humidity
40732;DHT22;26420;52.256;9.096;2022-08-06T00:01:28;13.50;99.90
40732;DHT22;26420;52.256;9.096;2022-08-06T00:06:31;13.60;99.90
40732;DHT22;26420;52.256;9.096;2022-08-06T00:11:34;13.60;99.90
40732;DHT22;26420;52.256;9.096;2022-08-06T00:16:39;13.60;99.90
40732;DHT22;26420;52.256;9.096;2022-08-06T00:21:42;13.40;99.90
40732;DHT22;26420;52.256;9.096;2022-08-06T00:26:45;13.30;99.90
40732;DHT22;26420;52.256;9.096;2022-08-06T00:32:06;13.30;99.90
40732;DHT22;26420;52.256;9.096;2022-08-06T00:37:13;13.20;99.90
40732;DHT22;26420;52.256;9.096;2022-08-06T00:42:19;13.10;99.90
40732;DHT22;26420;52.256;9.096;2022-08-06T00:47:21;13.30;99.90
40732;DHT22;26420;52.256;9.096;2022-08-06T00:52:43;13.20;99.90
40732;DHT22;26420;52.256;9.096;2022-08-06T00:57:48;12.90;99.90
40732;DHT22;26420;52.256;9.096;2022-08-06T01:02:51;12.80;99.90
40732;DHT22;26420;52.256;9.096;2022-08-06T01:07:53;13.00;99.90
40732;DHT22;26420;52.256;9.096;2022-08-06T01:12:56;12.90;99.90
40732;DHT22;26420;52.256;9.096;2022-08-06T01:18:07;13.00;99.90
40732;DHT22;26420;52.256;9.096;2022-08-06T01:28:43;13.00;99.90
40732;DHT22;26420;52.256;9.096;2022-08-06T01:33:56;12.70;99.90
40732;DHT22;26420;52.256;9.096;2022-08-06T01:39:00;12.70;99.90
40732;DHT22;26420;52.256;9.096;2022-08-06T01:44:05;12.70;99.90
40732;DHT22;26420;52.256;9.096;2022-08-06T01:49:22;12.50;99.90
40732;DHT22;26420;52.256;9.096;2022-08-06T01:54:30;12.40;99.90
40732;DHT22;26420;52.256;9.096;2022-08-06T01:59:37;12.40;99.90
40732;DHT22;26420;52.256;9.096;2022-08-06T02:04:43;12.30;99.90
40732;DHT22;26420;52.256;9.096;2022-08-06T02:09:53;12.30;99.90
40732;DHT22;26420;52.256;9.096;2022-08-06T02:15:00;12.30;99.90
40732;DHT22;26420;52.256;9.096;2022-08-06T02:20:02;12.30;99.90
40732;DHT22;26420;52.256;9.096;2022-08-06T02:25:14;12.30;99.90
40732;DHT22;26420;52.256;9.096;2022-08-06T02:30:33;12.10;99.90
40732;DHT22;26420;52.256;9.096;2022-08-06T02:35:50;12.20;99.90
40732;DHT22;26420;52.256;9.096;2022-08-06T02:41:07;12.20;99.90
40732;DHT22;26420;52.256;9.096;2022-08-06T02:46:21;12.20;99.90
40732;DHT22;26420;52.256;9.096;2022-08-06T02:51:34;12.10;99.90
40732;DHT22;26420;52.256;9.096;2022-08-06T02:57:01;12.10;99.90
40732;DHT22;26420;52.256;9.096;2022-08-06T03:02:06;12.10;99.90
40732;DHT22;26420;52.256;9.096;2022-08-06T03:07:13;12.10;99.90
40732;DHT22;26420;52.256;9.096;2022-08-06T03:12:28;12.10;99.90
40732;DHT22;26420;52.256;9.096;2022-08-06T03:17:33;11.90;99.90
40732;DHT22;26420;52.256;9.096;2022-08-06T03:22:38;11.80;99.90
40732;DHT22;26420;52.256;9.096;2022-08-06T03:27:46;12.00;99.90
40732;DHT22;26420;52.256;9.096;2022-08-06T03:32:49;12.00;99.90
40732;DHT22;26420;52.256;9.096;2022-08-06T03:37:54;11.90;99.90
40732;DHT22;26420;52.256;9.096;2022-08-06T03:43:03;11.80;99.90
40732;DHT22;26420;52.256;9.096;2022-08-06T03:48:13;11.80;99.90
40732;DHT22;26420;52.256;9.096;2022-08-06T03:53:39;11.90;99.90
40732;DHT22;26420;52.256;9.096;2022-08-06T03:58:47;11.70;99.90
40732;DHT22;26420;52.256;9.096;2022-08-06T04:03:52;11.60;99.90
40732;DHT22;26420;52.256;9.096;2022-08-06T04:08:55;11.60;99.90
40732;DHT22;26420;52.256;9.096;2022-08-06T04:13:59;11.60;99.90
40732;DHT22;26420;52.256;9.096;2022-08-06T04:19:10;11.70;99.90
40732;DHT22;26420;52.256;9.096;2022-08-06T04:24:16;11.90;99.90
40732;DHT22;26420;52.256;9.096;2022-08-06T04:29:20;12.00;99.90
40732;DHT22;26420;52.256;9.096;2022-08-06T04:34:25;11.90;99.90
40732;DHT22;26420;52.256;9.096;2022-08-06T04:39:30;12.00;99.90
40732;DHT22;26420;52.256;9.096;2022-08-06T04:44:52;12.30;99.90
40732;DHT22;26420;52.256;9.096;2022-08-06T04:50:01;12.40;99.90
40732;DHT22;26420;52.256;9.096;2022-08-06T04:55:09;12.40;99.90
40732;DHT22;26420;52.256;9.096;2022-08-06T05:00:26;12.60;99.90
40732;DHT22;26420;52.256;9.096;2022-08-06T05:05:54;12.70;99.90
40732;DHT22;26420;52.256;9.096;2022-08-06T05:11:26;12.90;99.90
40732;DHT22;26420;52.256;9.096;2022-08-06T05:16:32;12.90;99.90
40732;DHT22;26420;52.256;9.096;2022-08-06T05:21:37;13.00;99.90
40732;DHT22;26420;52.256;9.096;2022-08-06T05:26:59;13.30;99.90
40732;DHT22;26420;52.256;9.096;2022-08-06T05:32:02;13.50;99.90
40732;DHT22;26420;52.256;9.096;2022-08-06T05:37:05;13.70;99.90
40732;DHT22;26420;52.256;9.096;2022-08-06T05:42:10;14.00;99.90
40732;DHT22;26420;52.256;9.096;2022-08-06T05:47:15;14.20;99.90
40732;DHT22;26420;52.256;9.096;2022-08-06T05:52:28;14.40;99.90
40732;DHT22;26420;52.256;9.096;2022-08-06T06:02:56;14.60;99.90
40732;DHT22;26420;52.256;9.096;2022-08-06T06:08:04;14.70;99.90
40732;DHT22;26420;52.256;9.096;2022-08-06T06:13:16;14.90;99.90
40732;DHT22;26420;52.256;9.096;2022-08-06T06:19:00;14.90;99.90
40732;DHT22;26420;52.256;9.096;2022-08-06T06:24:17;15.10;99.90
40732;DHT22;26420;52.256;9.096;2022-08-06T06:36:09;15.50;99.90
40732;DHT22;26420;52.256;9.096;2022-08-06T06:41:02;15.90;99.90
40732;DHT22;26420;52.256;9.096;2022-08-06T06:46:34;16.10;99.90
40732;DHT22;26420;52.256;9.096;2022-08-06T06:51:53;16.30;99.90
40732;DHT22;26420;52.256;9.096;2022-08-06T06:57:05;16.20;99.90
40732;DHT22;26420;52.256;9.096;2022-08-06T07:02:15;16.40;99.90
40732;DHT22;26420;52.256;9.096;2022-08-06T07:07:19;16.50;99.90
40732;DHT22;26420;52.256;9.096;2022-08-06T07:12:25;16.60;99.90
40732;DHT22;26420;52.256;9.096;2022-08-06T07:17:36;16.80;99.90
40732;DHT22;26420;52.256;9.096;2022-08-06T07:22:48;17.00;99.90
40732;DHT22;26420;52.256;9.096;2022-08-06T07:28:11;17.30;99.90
40732;DHT22;26420;52.256;9.096;2022-08-06T07:33:21;17.40;99.90
40732;DHT22;26420;52.256;9.096;2022-08-06T07:38:31;17.50;99.90
40732;DHT22;26420;52.256;9.096;2022-08-06T07:43:43;17.70;99.90
40732;DHT22;26420;52.256;9.096;2022-08-06T07:49:12;17.90;99.90
40732;DHT22;26420;52.256;9.096;2022-08-06T07:54:15;17.90;99.90
40732;DHT22;26420;52.256;9.096;2022-08-06T07:59:34;18.20;99.90
40732;DHT22;26420;52.256;9.096;2022-08-06T08:04:45;18.40;99.90
40732;DHT22;26420;52.256;9.096;2022-08-06T08:10:07;18.50;99.90
40732;DHT22;26420;52.256;9.096;2022-08-06T08:15:09;18.60;99.90
40732;DHT22;26420;52.256;9.096;2022-08-06T08:20:28;18.60;99.90
40732;DHT22;26420;52.256;9.096;2022-08-06T08:25:35;18.70;99.90
40732;DHT22;26420;52.256;9.096;2022-08-06T08:30:45;18.90;99.90
40732;DHT22;26420;52.256;9.096;2022-08-06T08:35:50;19.00;99.90
40732;DHT22;26420;52.256;9.096;2022-08-06T08:41:21;19.00;99.90
40732;DHT22;26420;52.256;9.096;2022-08-06T08:46:44;19.20;99.90
40732;DHT22;26420;52.256;9.096;2022-08-06T08:52:01;19.20;99.90
40732;DHT22;26420;52.256;9.096;2022-08-06T08:57:03;19.20;99.90
40732;DHT22;26420;52.256;9.096;2022-08-06T09:02:25;19.30;99.90
40732;DHT22;26420;52.256;9.096;2022-08-06T09:07:28;19.60;99.90
40732;DHT22;26420;52.256;9.096;2022-08-06T09:12:37;19.80;99.90
40732;DHT22;26420;52.256;9.096;2022-08-06T09:33:30;19.70;99.90
40732;DHT22;26420;52.256;9.096;2022-08-06T09:38:57;19.90;99.90
40732;DHT22;26420;52.256;9.096;2022-08-06T09:44:09;20.10;99.90
40732;DHT22;26420;52.256;9.096;2022-08-06T09:49:43;20.30;99.90
40732;DHT22;26420;52.256;9.096;2022-08-06T10:00:29;20.50;99.90
40732;DHT22;26420;52.256;9.096;2022-08-06T10:05:33;20.70;99.90
40732;DHT22;26420;52.256;9.096;2022-08-06T10:10:51;21.00;99.90
40732;DHT22;26420;52.256;9.096;2022-08-06T10:15:56;21.20;99.90
40732;DHT22;26420;52.256;9.096;2022-08-06T10:21:14;21.50;99.90
40732;DHT22;26420;52.256;9.096;2022-08-06T10:26:23;21.60;99.90
40732;DHT22;26420;52.256;9.096;2022-08-06T10:31:26;21.90;99.90
40732;DHT22;26420;52.256;9.096;2022-08-06T10:36:35;21.60;99.90
40732;DHT22;26420;52.256;9.096;2022-08-06T10:41:37;22.20;99.20
40732;DHT22;26420;52.256;9.096;2022-08-06T10:47:01;22.30;99.90
40732;DHT22;26420;52.256;9.096;2022-08-06T10:52:06;22.00;99.90
40732;DHT22;26420;52.256;9.096;2022-08-06T10:57:08;22.50;99.90
40732;DHT22;26420;52.256;9.096;2022-08-06T11:02:50;22.30;97.80
40732;DHT22;26420;52.256;9.096;2022-08-06T11:13:58;22.40;94.30
40732;DHT22;26420;52.256;9.096;2022-08-06T11:19:05;23.10;94.00
40732;DHT22;26420;52.256;9.096;2022-08-06T11:24:08;23.50;96.10
40732;DHT22;26420;52.256;9.096;2022-08-06T11:29:12;23.20;94.00
40732;DHT22;26420;52.256;9.096;2022-08-06T11:34:18;23.80;92.60
40732;DHT22;26420;52.256;9.096;2022-08-06T11:40:04;24.20;89.50
40732;DHT22;26420;52.256;9.096;2022-08-06T11:45:07;24.40;90.50
40732;DHT22;26420;52.256;9.096;2022-08-06T11:50:29;23.40;91.20
40732;DHT22;26420;52.256;9.096;2022-08-06T11:55:31;22.40;92.10
40732;DHT22;26420;52.256;9.096;2022-08-06T12:00:57;23.00;90.70
40732;DHT22;26420;52.256;9.096;2022-08-06T12:06:00;23.80;90.20
40732;DHT22;26420;52.256;9.096;2022-08-06T12:11:20;24.70;91.70
40732;DHT22;26420;52.256;9.096;2022-08-06T12:21:30;23.30;90.60
40732;DHT22;26420;52.256;9.096;2022-08-06T12:26:45;24.20;88.10
40732;DHT22;26420;52.256;9.096;2022-08-06T12:31:47;24.70;83.80
40732;DHT22;26420;52.256;9.096;2022-08-06T12:36:51;24.70;88.60
40732;DHT22;26420;52.256;9.096;2022-08-06T12:41:53;24.80;87.50
40732;DHT22;26420;52.256;9.096;2022-08-06T12:47:10;23.80;86.30
40732;DHT22;26420;52.256;9.096;2022-08-06T12:52:15;23.70;88.50
40732;DHT22;26420;52.256;9.096;2022-08-06T12:57:30;23.20;88.50
40732;DHT22;26420;52.256;9.096;2022-08-06T13:02:54;23.30;87.30
40732;DHT22;26420;52.256;9.096;2022-08-06T13:07:57;23.70;89.00
40732;DHT22;26420;52.256;9.096;2022-08-06T13:13:03;23.10;88.50
40732;DHT22;26420;52.256;9.096;2022-08-06T13:18:25;22.70;90.30
40732;DHT22;26420;52.256;9.096;2022-08-06T13:23:49;22.90;90.70
40732;DHT22;26420;52.256;9.096;2022-08-06T13:29:11;22.70;89.20
40732;DHT22;26420;52.256;9.096;2022-08-06T13:34:51;22.60;90.80
40732;DHT22;26420;52.256;9.096;2022-08-06T13:39:55;22.60;90.60
40732;DHT22;26420;52.256;9.096;2022-08-06T13:44:56;22.80;90.10
40732;DHT22;26420;52.256;9.096;2022-08-06T13:49:58;22.70;89.60
40732;DHT22;26420;52.256;9.096;2022-08-06T13:55:04;23.30;84.60
40732;DHT22;26420;52.256;9.096;2022-08-06T14:00:10;23.60;82.70
40732;DHT22;26420;52.256;9.096;2022-08-06T14:05:17;23.30;88.10
40732;DHT22;26420;52.256;9.096;2022-08-06T14:10:23;22.80;88.20
40732;DHT22;26420;52.256;9.096;2022-08-06T14:15:32;23.00;90.00
40732;DHT22;26420;52.256;9.096;2022-08-06T14:20:43;23.70;87.10
40732;DHT22;26420;52.256;9.096;2022-08-06T14:25:45;24.30;84.80
40732;DHT22;26420;52.256;9.096;2022-08-06T14:31:03;24.30;85.40
40732;DHT22;26420;52.256;9.096;2022-08-06T14:36:09;24.70;85.10
40732;DHT22;26420;52.256;9.096;2022-08-06T14:41:11;24.80;84.10
40732;DHT22;26420;52.256;9.096;2022-08-06T14:46:52;24.50;83.20
40732;DHT22;26420;52.256;9.096;2022-08-06T14:51:53;23.60;86.30
40732;DHT22;26420;52.256;9.096;2022-08-06T14:57:15;23.10;86.80
40732;DHT22;26420;52.256;9.096;2022-08-06T15:02:17;22.60;88.40
40732;DHT22;26420;52.256;9.096;2022-08-06T15:07:20;22.50;89.60
40732;DHT22;26420;52.256;9.096;2022-08-06T15:12:27;22.50;88.20
40732;DHT22;26420;52.256;9.096;2022-08-06T15:17:43;22.40;89.00
40732;DHT22;26420;52.256;9.096;2022-08-06T15:23:05;22.80;88.60
40732;DHT22;26420;52.256;9.096;2022-08-06T15:28:07;23.00;87.40
40732;DHT22;26420;52.256;9.096;2022-08-06T15:33:11;22.90;89.50
40732;DHT22;26420;52.256;9.096;2022-08-06T15:38:13;22.60;88.30
40732;DHT22;26420;52.256;9.096;2022-08-06T15:43:17;22.60;90.40
40732;DHT22;26420;52.256;9.096;2022-08-06T15:48:25;22.70;90.40
40732;DHT22;26420;52.256;9.096;2022-08-06T15:53:29;24.00;86.10
40732;DHT22;26420;52.256;9.096;2022-08-06T15:58:31;24.40;87.40
40732;DHT22;26420;52.256;9.096;2022-08-06T16:03:34;25.60;88.10
40732;DHT22;26420;52.256;9.096;2022-08-06T16:08:56;25.80;92.50
40732;DHT22;26420;52.256;9.096;2022-08-06T16:14:00;24.70;95.30
40732;DHT22;26420;52.256;9.096;2022-08-06T16:19:04;25.40;94.40
40732;DHT22;26420;52.256;9.096;2022-08-06T16:24:22;26.10;93.90
40732;DHT22;26420;52.256;9.096;2022-08-06T16:29:26;26.80;91.10
40732;DHT22;26420;52.256;9.096;2022-08-06T16:34:29;26.60;90.70
40732;DHT22;26420;52.256;9.096;2022-08-06T16:39:37;27.00;90.50
40732;DHT22;26420;52.256;9.096;2022-08-06T16:44:39;26.10;90.70
40732;DHT22;26420;52.256;9.096;2022-08-06T16:50:00;24.30;89.70
40732;DHT22;26420;52.256;9.096;2022-08-06T16:55:22;23.30;91.30
40732;DHT22;26420;52.256;9.096;2022-08-06T17:00:25;22.80;91.80
40732;DHT22;26420;52.256;9.096;2022-08-06T17:05:46;22.40;92.10
40732;DHT22;26420;52.256;9.096;2022-08-06T17:10:54;22.10;92.30
40732;DHT22;26420;52.256;9.096;2022-08-06T17:16:01;22.00;92.80
40732;DHT22;26420;52.256;9.096;2022-08-06T17:21:03;21.90;94.20
40732;DHT22;26420;52.256;9.096;2022-08-06T17:26:08;21.90;94.20
40732;DHT22;26420;52.256;9.096;2022-08-06T17:31:30;21.70;94.60
40732;DHT22;26420;52.256;9.096;2022-08-06T17:36:52;21.60;94.80
40732;DHT22;26420;52.256;9.096;2022-08-06T17:41:57;21.50;95.10
40732;DHT22;26420;52.256;9.096;2022-08-06T17:46:59;21.30;95.40
40732;DHT22;26420;52.256;9.096;2022-08-06T17:52:01;21.20;96.50
40732;DHT22;26420;52.256;9.096;2022-08-06T17:57:04;20.90;96.40
40732;DHT22;26420;52.256;9.096;2022-08-06T18:02:26;20.80;97.40
40732;DHT22;26420;52.256;9.096;2022-08-06T18:07:28;20.70;97.80
40732;DHT22;26420;52.256;9.096;2022-08-06T18:12:50;20.60;98.20
40732;DHT22;26420;52.256;9.096;2022-08-06T18:17:53;20.50;98.50
40732;DHT22;26420;52.256;9.096;2022-08-06T18:23:06;20.30;98.90
40732;DHT22;26420;52.256;9.096;2022-08-06T18:28:22;20.20;99.30
40732;DHT22;26420;52.256;9.096;2022-08-06T18:33:33;20.00;99.90
40732;DHT22;26420;52.256;9.096;2022-08-06T18:38:37;19.80;99.90
40732;DHT22;26420;52.256;9.096;2022-08-06T18:43:38;19.70;99.90
40732;DHT22;26420;52.256;9.096;2022-08-06T18:48:56;19.50;99.90
40732;DHT22;26420;52.256;9.096;2022-08-06T18:53:59;19.50;99.90
40732;DHT22;26420;52.256;9.096;2022-08-06T18:59:06;19.20;99.90
40732;DHT22;26420;52.256;9.096;2022-08-06T19:04:28;18.90;99.90
40732;DHT22;26420;52.256;9.096;2022-08-06T19:09:32;18.80;99.90
40732;DHT22;26420;52.256;9.096;2022-08-06T19:14:37;18.50;99.90
40732;DHT22;26420;52.256;9.096;2022-08-06T19:19:44;18.20;99.90
40732;DHT22;26420;52.256;9.096;2022-08-06T19:25:08;18.20;99.90
40732;DHT22;26420;52.256;9.096;2022-08-06T19:30:11;18.10;99.90
40732;DHT22;26420;52.256;9.096;2022-08-06T19:35:33;17.70;99.90
40732;DHT22;26420;52.256;9.096;2022-08-06T19:40:56;17.50;99.90
40732;DHT22;26420;52.256;9.096;2022-08-06T19:45:58;17.40;99.90
40732;DHT22;26420;52.256;9.096;2022-08-06T19:51:20;17.30;99.90
40732;DHT22;26420;52.256;9.096;2022-08-06T19:56:42;17.40;99.90
40732;DHT22;26420;52.256;9.096;2022-08-06T20:01:44;17.10;99.90
40732;DHT22;26420;52.256;9.096;2022-08-06T20:07:06;17.10;99.90
40732;DHT22;26420;52.256;9.096;2022-08-06T20:12:12;16.90;99.90
40732;DHT22;26420;52.256;9.096;2022-08-06T20:17:14;16.90;99.90
40732;DHT22;26420;52.256;9.096;2022-08-06T20:22:17;16.90;99.90
40732;DHT22;26420;52.256;9.096;2022-08-06T20:27:21;16.70;99.90
40732;DHT22;26420;52.256;9.096;2022-08-06T20:32:43;16.50;99.90
40732;DHT22;26420;52.256;9.096;2022-08-06T20:37:54;16.30;99.90
40732;DHT22;26420;52.256;9.096;2022-08-06T20:43:05;16.40;99.90
40732;DHT22;26420;52.256;9.096;2022-08-06T20:48:12;16.40;99.90
40732;DHT22;26420;52.256;9.096;2022-08-06T20:53:14;16.40;99.90
40732;DHT22;26420;52.256;9.096;2022-08-06T20:58:16;16.20;99.90
40732;DHT22;26420;52.256;9.096;2022-08-06T21:03:18;16.30;99.90
40732;DHT22;26420;52.256;9.096;2022-08-06T21:08:41;16.20;99.90
40732;DHT22;26420;52.256;9.096;2022-08-06T21:13:45;16.10;99.90
40732;DHT22;26420;52.256;9.096;2022-08-06T21:19:05;16.20;99.90
40732;DHT22;26420;52.256;9.096;2022-08-06T21:24:08;16.20;99.90
40732;DHT22;26420;52.256;9.096;2022-08-06T21:29:12;16.00;99.90
40732;DHT22;26420;52.256;9.096;2022-08-06T21:34:34;15.90;99.90
40732;DHT22;26420;52.256;9.096;2022-08-06T21:39:37;15.90;99.90
40732;DHT22;26420;52.256;9.096;2022-08-06T21:44:58;15.70;99.90
40732;DHT22;26420;52.256;9.096;2022-08-06T21:50:00;15.60;99.90
40732;DHT22;26420;52.256;9.096;2022-08-06T21:55:22;15.40;99.90
40732;DHT22;26420;52.256;9.096;2022-08-06T22:00:45;15.40;99.90
40732;DHT22;26420;52.256;9.096;2022-08-06T22:05:54;15.30;99.90
40732;DHT22;26420;52.256;9.096;2022-08-06T22:11:16;15.10;99.90
40732;DHT22;26420;52.256;9.096;2022-08-06T22:16:37;15.20;99.90
40732;DHT22;26420;52.256;9.096;2022-08-06T22:21:39;15.00;99.90
40732;DHT22;26420;52.256;9.096;2022-08-06T22:26:51;15.00;99.90
40732;DHT22;26420;52.256;9.096;2022-08-06T22:31:57;15.00;99.90
40732;DHT22;26420;52.256;9.096;2022-08-06T22:37:04;15.20;99.90
40732;DHT22;26420;52.256;9.096;2022-08-06T22:42:06;15.10;99.90
40732;DHT22;26420;52.256;9.096;2022-08-06T22:47:08;15.00;99.90
40732;DHT22;26420;52.256;9.096;2022-08-06T22:52:10;14.90;99.90
40732;DHT22;26420;52.256;9.096;2022-08-06T22:57:12;14.60;99.90
40732;DHT22;26420;52.256;9.096;2022-08-06T23:02:14;14.60;99.90
40732;DHT22;26420;52.256;9.096;2022-08-06T23:07:17;14.60;99.90
40732;DHT22;26420;52.256;9.096;2022-08-06T23:12:26;14.60;99.90
40732;DHT22;26420;52.256;9.096;2022-08-06T23:17:37;14.70;99.90
40732;DHT22;26420;52.256;9.096;2022-08-06T23:22:41;14.60;99.90
40732;DHT22;26420;52.256;9.096;2022-08-06T23:27:44;14.40;99.90
40732;DHT22;26420;52.256;9.096;2022-08-06T23:32:52;14.30;99.90
40732;DHT22;26420;52.256;9.096;2022-08-06T23:37:54;14.20;99.90
40732;DHT22;26420;52.256;9.096;2022-08-06T23:43:16;14.20;99.90
40732;DHT22;26420;52.256;9.096;2022-08-06T23:48:19;14.20;99.90
40732;DHT22;26420;52.256;9.096;2022-08-06T23:53:22;14.10;99.90
40732;DHT22;26420;52.256;9.096;2022-08-06T23:58:44;14.10;99.90
